• Join FlightAware (Why Join?)
  • Login
  • US Flag 
12:15AM EDT


 

Airport Tracker/Info


-or-


 

Live Flight TrackerFlight Track Log ✈ N432BG ✈ 03-Jul-2013 ✈ KOAK - KFAT

Flight Track Log - Related Links

Times and Time Zones

All times are in EDT time to prevent confusion due to time zone crossing. See the N432BG flight status page for this flight to view local times or setup timezone preferences in your user account.

Time Position Orientation Groundspeed Altitude Reporting Facility
EDT Latitude Longitude Course Direction KTS MPH feet Rate Location/Type
09:14PM 37.7500 -122.2333 115° Southeast 132 152 1,300  Level Northern Cal TRACON
09:15PM 37.7500 -122.1833 90° East 134 154 2,100 600 Climbing Northern Cal TRACON
09:16PM 37.7333 -122.1333 113° Southeast 161 185 2,500 300 Climbing Northern Cal TRACON
09:17PM 37.7333 -122.0667 90° East 173 199 2,700 480 Climbing Northern Cal TRACON
09:18PM 37.7333 -122.0167 90° East 148 170 3,500 660 Climbing Northern Cal TRACON
09:19PM 37.6355 -121.9849 115° Southeast  Level Estimated
09:19PM 37.7167 -121.9667 113° Southeast 150 173 4,100  Level Northern Cal TRACON
09:20PM 37.7000 -121.9167 113° Southeast 145 167 4,800 600 Climbing Northern Cal TRACON
09:21PM 37.7000 -121.8667 90° East 142 163 5,400 540 Climbing Northern Cal TRACON
09:22PM 37.6833 -121.8167 113° Southeast 143 165 6,000 600 Climbing Northern Cal TRACON
09:23PM 37.6667 -121.7667 113° Southeast 144 166 6,700 420 Climbing Northern Cal TRACON
09:24PM 37.6667 -121.7333 90° East 149 171 6,900 60 Climbing Northern Cal TRACON
09:25PM 37.6500 -121.6667 108° East 165 190 6,900 180 Level Northern Cal TRACON
09:26PM 37.6333 -121.6167 113° Southeast 163 188 7,300 300 Climbing Northern Cal TRACON
09:27PM 37.6333 -121.5667 90° East 149 171 7,500 60 Climbing Northern Cal TRACON
09:28PM 37.6167 -121.5167 113° Southeast 162 186 7,500  Level Northern Cal TRACON
09:29PM 37.6000 -121.4500 107° East 168 193 7,500  Level Northern Cal TRACON
09:30PM 37.6000 -121.4000 90° East 169 194 7,500  Level Northern Cal TRACON
09:31PM 37.5833 -121.3333 107° East 171 197 7,500  Level Northern Cal TRACON
09:32PM 37.5667 -121.2833 113° Southeast 169 194 7,500  Level Northern Cal TRACON
09:33PM 37.5500 -121.2333 113° Southeast 170 196 7,500  Level Northern Cal TRACON
09:34PM 37.5333 -121.1667 107° East 171 197 7,500  Level Northern Cal TRACON
09:35PM 37.5167 -121.1167 113° Southeast 169 194 7,500  Level Northern Cal TRACON
09:36PM 37.5000 -121.0500 107° East 170 196 7,500  Level Northern Cal TRACON
09:37PM 37.4833 -121.0000 113° Southeast 174 200 7,500  Level Northern Cal TRACON
09:38PM 37.4500 -120.9500 130° Southeast 170 196 7,500  Level Northern Cal TRACON
09:39PM 37.4333 -120.9000 113° Southeast 172 198 7,500  Level Northern Cal TRACON
09:40PM 37.4000 -120.8500 130° Southeast 172 198 7,500  Level Northern Cal TRACON
09:41PM 37.3833 -120.8000 113° Southeast 173 199 7,500  Level Northern Cal TRACON
09:42PM 37.3500 -120.7500 130° Southeast 172 198 7,500  Level Northern Cal TRACON
09:43PM 37.3167 -120.7000 130° Southeast 172 198 7,500  Level Northern Cal TRACON
09:44PM 37.3000 -120.6500 113° Southeast 171 197 7,500  Level Northern Cal TRACON
09:45PM 37.2667 -120.6000 130° Southeast 172 198 7,500  Level Northern Cal TRACON
09:46PM 37.2333 -120.5500 130° Southeast 181 208 7,500  Level Northern Cal TRACON
09:47PM 37.2167 -120.5000 113° Southeast 175 201 7,500  Level Northern Cal TRACON
09:48PM 37.1833 -120.4500 130° Southeast 169 194 7,500  Level Northern Cal TRACON
09:49PM 37.1500 -120.4000 130° Southeast 169 194 7,500  Level Northern Cal TRACON
09:50PM 37.1333 -120.3500 113° Southeast 169 194 7,500  Level Northern Cal TRACON
09:52PM 37.0906 -120.2878 131° Southeast 169 194 7,500 -180 Level Oakland Center
09:53PM 37.0611 -120.2375 126° Southeast 176 203 7,200 -420 Descending Oakland Center
09:54PM 37.0294 -120.1786 124° Southeast 190 219 6,700 -480 Descending Oakland Center
09:55PM 36.9997 -120.1236 124° Southeast 194 223 6,300 -480 Descending Oakland Center
09:56PM 36.9694 -120.0647 123° Southeast 194 223 5,800 -540 Descending Oakland Center
09:57PM 36.9389 -120.0103 125° Southeast 191 220 5,300 -540 Descending Oakland Center
09:58PM 36.9086 -119.9531 123° Southeast 196 226 4,800 -600 Descending Oakland Center
09:59PM 36.8769 -119.8992 126° Southeast 193 222 4,100 -720 Descending Oakland Center
10:00PM 36.8447 -119.8408 125° Southeast 200 230 3,400 -780 Descending Oakland Center
10:01PM 36.8128 -119.7803 123° Southeast 194 223 2,600 -840 Descending Oakland Center
10:02PM 36.7778 -119.7467 142° Southeast 167 192 1,700 -780 Descending Oakland Center
10:03PM 36.7494 -119.7211 144° Southeast 134 154 1,100 -540 Descending Oakland Center
10:04PM 36.7650 -119.7006 47° Northeast 100 115 600 -540 Descending Oakland Center
10:06PM 36.7764 -119.7187 308° West  Level Estimated
10:13PM 36.7764 -119.7187 148° Southeast  Level Estimated